»·PEaware :: N6750H KVGT-KSLC

N6750H :: KVGT-KSLC

FLIGHT INFORMATION

Flight Status: Arrived
Operator: Privately registered:
United States
More flights under this callsign
Pilot: Yoel G. (22311)
Aircraft: Unknown
(DA62)
More flights by this aircraft type
Origin: KVGT North Las Vegas
United States
Destination: KSLC Salt Lake City Intl
United States
More flights between these airports :: More routes between these airports
Route: +NOTWN5 LAS V394 MMM V21 MASIE
File this flight plan on PilotEdge
Remarks:
Altitude:
(Current/Filed)
17,000ft
Speed:
(Current/Filed)
201kts
Departed: 06-Jan-19 10:22 AM
Arrived: 06-Jan-19 12:02 PM
Distance/Time
Traveled:
313nm/1:40
Distance/Time
To Go:
Arrived

Flight Plot

Page will automatically refresh every two minutes.

Flight plan parsing failed; only flown route is shown


Map Options




Map Legend


Flown Route
Filed Route
Departure Airport
Arrival Airport
Navaid (VOR, NDB)
Fix

Horizontal Profiles

Position Reports

Time Latitude Longitude Heading Altitude Ground
Speed
06-Jan-19 09:46 36.208603 -115.197321 0 2191ft 0kts
06-Jan-19 09:47 36.208603 -115.197321 0 2191ft 0kts
06-Jan-19 09:48 36.208603 -115.197321 0 2191ft 0kts
06-Jan-19 09:49 36.208603 -115.197321 0 2191ft 0kts
06-Jan-19 09:50 36.208603 -115.197321 0 2191ft 0kts
06-Jan-19 09:51 36.208603 -115.197321 0 2191ft 0kts
06-Jan-19 09:52 36.208603 -115.197321 0 2191ft 0kts
06-Jan-19 09:53 36.208603 -115.197321 0 2191ft 0kts
06-Jan-19 09:54 36.208603 -115.197321 0 2191ft 0kts
06-Jan-19 09:55 36.208603 -115.197321 0 2191ft 0kts
06-Jan-19 09:56 36.208603 -115.197321 0 2191ft 0kts
06-Jan-19 09:57 36.208603 -115.197321 0 2191ft 0kts
06-Jan-19 09:58 36.208603 -115.197321 0 2191ft 0kts
06-Jan-19 09:59 36.208603 -115.197321 0 2191ft 0kts
06-Jan-19 10:00 36.208603 -115.197321 0 2191ft 0kts
06-Jan-19 10:01 36.208603 -115.197321 0 2191ft 0kts
06-Jan-19 10:02 36.208603 -115.197321 0 2191ft 0kts
06-Jan-19 10:03 36.208603 -115.197321 0 2191ft 0kts
06-Jan-19 10:04 36.208603 -115.197321 0 2191ft 0kts
06-Jan-19 10:05 36.208603 -115.197321 0 2191ft 0kts
06-Jan-19 10:06 36.208603 -115.197321 0 2191ft 0kts
06-Jan-19 10:07 36.208603 -115.197321 0 2191ft 0kts
06-Jan-19 10:08 36.208603 -115.197321 0 2191ft 0kts
06-Jan-19 10:09 36.208603 -115.197321 0 2191ft 0kts
06-Jan-19 10:10 36.208603 -115.197321 0 2191ft 0kts
06-Jan-19 10:11 36.208603 -115.197321 0 2191ft 0kts
06-Jan-19 10:12 36.209669 -115.198170 313 2195ft 16kts
06-Jan-19 10:13 36.212290 -115.201725 267 2205ft 8kts
06-Jan-19 10:14 36.212635 -115.203298 359 2208ft 0kts
06-Jan-19 10:15 36.212635 -115.203298 359 2208ft 0kts
06-Jan-19 10:16 36.212639 -115.203377 201 2209ft 3kts
06-Jan-19 10:17 36.212683 -115.201256 89 2204ft 0kts
06-Jan-19 10:18 36.212683 -115.201256 89 2204ft 0kts
06-Jan-19 10:19 36.212683 -115.201255 89 2204ft 0kts
06-Jan-19 10:20 36.212683 -115.201248 89 2204ft 1kts
06-Jan-19 10:21 36.207237 -115.193265 134 2180ft 107kts
06-Jan-19 10:22 36.184054 -115.183615 239 3633ft 96kts
06-Jan-19 10:23 36.179172 -115.214947 264 4961ft 102kts
06-Jan-19 10:24 36.198969 -115.251525 326 5006ft 161kts
06-Jan-19 10:25 36.236526 -115.280954 327 5780ft 128kts
06-Jan-19 10:26 36.251610 -115.261877 125 7262ft 124kts
06-Jan-19 10:27 36.224038 -115.242871 160 8412ft 123kts
06-Jan-19 10:28 36.225273 -115.210087 27 9581ft 122kts
06-Jan-19 10:29 36.250643 -115.179622 43 10724ft 133kts
06-Jan-19 10:31 36.274083 -115.142503 49 11846ft 141kts
06-Jan-19 10:32 36.302021 -115.095026 51 12011ft 195kts
06-Jan-19 10:33 36.335231 -115.037580 52 12006ft 210kts
06-Jan-19 10:34 36.369450 -114.978277 52 12007ft 212kts
06-Jan-19 10:35 36.403966 -114.918365 52 12009ft 213kts
06-Jan-19 10:36 36.438432 -114.858437 52 12009ft 213kts
06-Jan-19 10:37 36.472984 -114.798259 52 12009ft 213kts
06-Jan-19 10:38 36.507435 -114.738155 52 12010ft 213kts
06-Jan-19 10:39 36.542001 -114.677741 52 12010ft 214kts
06-Jan-19 10:40 36.576480 -114.617375 52 12010ft 214kts
06-Jan-19 10:41 36.610932 -114.556944 52 12011ft 214kts
06-Jan-19 10:42 36.645379 -114.496415 52 12011ft 214kts
06-Jan-19 10:43 36.672266 -114.448917 51 13865ft 143kts
06-Jan-19 10:44 36.695064 -114.408811 51 15073ft 144kts
06-Jan-19 10:45 36.718605 -114.367293 51 16228ft 149kts
06-Jan-19 10:46 36.743672 -114.323085 52 17008ft 180kts
06-Jan-19 10:47 36.780668 -114.269534 28 17000ft 217kts
06-Jan-19 10:48 36.833123 -114.228205 26 16991ft 226kts
06-Jan-19 10:48 36.877874 -114.193430 26 16991ft 228kts
06-Jan-19 10:50 36.940915 -114.144387 26 16991ft 229kts
06-Jan-19 10:51 36.994986 -114.102243 26 16992ft 229kts
06-Jan-19 10:52 37.049106 -114.059985 26 16992ft 229kts
06-Jan-19 10:53 37.103256 -114.017641 25 16991ft 230kts
06-Jan-19 10:53 37.148583 -113.982141 25 16989ft 229kts
06-Jan-19 10:54 37.202642 -113.939742 25 16989ft 229kts
06-Jan-19 10:55 37.256639 -113.897307 25 16990ft 229kts
06-Jan-19 10:56 37.310240 -113.855115 25 16990ft 229kts
06-Jan-19 10:57 37.364437 -113.812384 25 16991ft 229kts
06-Jan-19 10:58 37.418616 -113.769583 25 16991ft 230kts
06-Jan-19 10:59 37.472797 -113.726712 25 16990ft 230kts
06-Jan-19 11:00 37.526903 -113.683825 25 16979ft 230kts
06-Jan-19 11:01 37.580613 -113.641173 25 16957ft 231kts
06-Jan-19 11:02 37.635342 -113.597632 25 16929ft 231kts
06-Jan-19 11:03 37.689035 -113.554846 26 16910ft 231kts
06-Jan-19 11:04 37.743229 -113.511578 25 16903ft 231kts
06-Jan-19 11:05 37.797211 -113.468414 25 16904ft 231kts
06-Jan-19 11:06 37.850047 -113.426085 25 16913ft 231kts
06-Jan-19 11:07 37.903436 -113.383241 25 16914ft 231kts
06-Jan-19 11:08 37.957164 -113.340059 26 16909ft 231kts
06-Jan-19 11:09 38.010554 -113.297055 26 16908ft 230kts
06-Jan-19 11:10 38.064074 -113.253882 26 16908ft 230kts
06-Jan-19 11:11 38.117773 -113.210483 26 16901ft 230kts
06-Jan-19 11:12 38.171646 -113.166874 26 16898ft 229kts
06-Jan-19 11:13 38.225465 -113.123224 26 16897ft 229kts
06-Jan-19 11:14 38.279196 -113.079573 26 16897ft 229kts
06-Jan-19 11:15 38.333162 -113.035644 26 16898ft 230kts
06-Jan-19 11:16 38.389064 -112.998301 15 16898ft 225kts
06-Jan-19 11:17 38.446786 -112.967500 15 16899ft 225kts
06-Jan-19 11:18 38.504634 -112.936660 15 16899ft 225kts
06-Jan-19 11:19 38.562285 -112.905866 15 16899ft 225kts
06-Jan-19 11:20 38.619919 -112.875039 15 16900ft 224kts
06-Jan-19 11:21 38.677590 -112.844130 15 16900ft 224kts
06-Jan-19 11:22 38.735185 -112.813210 16 16901ft 224kts
06-Jan-19 11:23 38.792678 -112.782289 16 16901ft 224kts
06-Jan-19 11:24 38.850234 -112.751275 16 16898ft 224kts
06-Jan-19 11:25 38.907648 -112.720292 16 16891ft 224kts
06-Jan-19 11:26 38.965263 -112.689148 16 16883ft 225kts
06-Jan-19 11:27 39.023184 -112.657771 15 16878ft 225kts
06-Jan-19 11:28 39.080946 -112.626422 15 16876ft 226kts
06-Jan-19 11:29 39.138978 -112.594864 15 16872ft 225kts
06-Jan-19 11:30 39.196649 -112.563449 15 16872ft 225kts
06-Jan-19 11:31 39.254415 -112.531926 15 16873ft 225kts
06-Jan-19 11:32 39.312005 -112.500162 16 16873ft 226kts
06-Jan-19 11:33 39.369541 -112.467259 16 16874ft 226kts
06-Jan-19 11:34 39.427133 -112.434232 16 16874ft 226kts
06-Jan-19 11:35 39.484578 -112.401232 16 16875ft 226kts
06-Jan-19 11:36 39.542019 -112.368165 16 16875ft 226kts
06-Jan-19 11:37 39.598509 -112.335593 17 16869ft 226kts
06-Jan-19 11:38 39.655618 -112.302585 17 16870ft 225kts
06-Jan-19 11:39 39.712273 -112.269788 17 16870ft 225kts
06-Jan-19 11:40 39.769377 -112.236662 17 16865ft 225kts
06-Jan-19 11:41 39.830141 -112.201457 19 14318ft 241kts
06-Jan-19 11:42 39.888797 -112.167302 20 11492ft 224kts
06-Jan-19 11:43 39.940701 -112.137084 20 10866ft 200kts
06-Jan-19 11:44 39.991919 -112.107420 20 10864ft 201kts
06-Jan-19 11:45 40.043183 -112.077596 20 10863ft 202kts
06-Jan-19 11:46 40.094462 -112.047645 20 10863ft 201kts
06-Jan-19 11:47 40.145630 -112.017736 20 10861ft 201kts
06-Jan-19 11:48 40.196813 -111.987787 20 10861ft 201kts
06-Jan-19 11:49 40.248061 -111.957784 20 10862ft 201kts
06-Jan-19 11:50 40.299376 -111.928550 17 10862ft 201kts
06-Jan-19 11:51 40.352404 -111.923640 348 10863ft 194kts
06-Jan-19 11:52 40.406288 -111.930847 349 10864ft 194kts
06-Jan-19 11:53 40.461005 -111.937334 350 10461ft 208kts
06-Jan-19 11:54 40.521023 -111.944221 352 9335ft 218kts
06-Jan-19 11:55 40.580215 -111.950783 352 8286ft 191kts
06-Jan-19 11:56 40.625491 -111.956071 351 7245ft 159kts
06-Jan-19 11:57 40.672872 -111.961531 352 6280ft 175kts
06-Jan-19 11:58 40.716561 -111.966482 352 5388ft 131kts
06-Jan-19 11:59 40.747691 -111.970056 352 4809ft 99kts
06-Jan-19 12:00 40.771356 -111.972780 352 4338ft 78kts
06-Jan-19 12:01 40.785300 -111.974328 358 4220ft 25kts
06-Jan-19 12:02 40.785711 -111.972841 106 4220ft 0kts
06-Jan-19 12:03 40.785479 -111.969641 78 4220ft 24kts
06-Jan-19 12:04 40.786673 -111.962149 96 4220ft 18kts
06-Jan-19 12:05 40.784757 -111.960028 179 4220ft 27kts
06-Jan-19 12:06 40.778348 -111.960536 212 4223ft 16kts
06-Jan-19 12:07 40.776543 -111.958747 155 4223ft 7kts
06-Jan-19 12:08 40.776346 -111.958715 180 4223ft 0kts
06-Jan-19 12:09 40.776346 -111.958715 180 4223ft 0kts

Navigation Log

Ident Type
Flight plan parsing failed, navigation log unavailable